createdAt,value
2023-04-27T00:03:33.643Z,6.15
2023-04-27T00:06:00.807Z,5.78
2023-04-27T00:08:28.015Z,6.15
2023-04-27T00:10:54.998Z,6.80
2023-04-27T00:13:21.977Z,6.63
2023-04-27T00:15:49.043Z,6.55
2023-04-27T00:18:16.213Z,6.70
2023-04-27T00:20:42.969Z,6.90
2023-04-27T00:25:39.406Z,7.15
2023-04-27T00:28:06.444Z,6.47
2023-04-27T00:30:33.343Z,7.22
2023-04-27T00:33:00.932Z,5.95
2023-04-27T00:35:28.435Z,6.10
2023-04-27T00:37:55.515Z,5.75
2023-04-27T00:40:22.423Z,5.93
2023-04-27T00:42:49.926Z,7.25
2023-04-27T00:45:16.843Z,6.78
2023-04-27T00:50:12.349Z,5.47
2023-04-27T00:52:39.786Z,5.78
2023-04-27T00:55:08.428Z,5.63
2023-04-27T00:57:35.978Z,7.13
2023-04-27T01:00:07.301Z,7.07
2023-04-27T01:02:37.123Z,6.50
2023-04-27T01:05:04.789Z,7.03
2023-04-27T01:07:33.242Z,8.65
2023-04-27T01:10:00.039Z,9.52
2023-04-27T01:12:28.012Z,9.52
2023-04-27T01:14:55.126Z,9.75
2023-04-27T01:17:22.112Z,8.13
2023-04-27T01:19:50.064Z,7.78
2023-04-27T01:22:17.766Z,6.78
2023-04-27T01:24:44.845Z,6.57
2023-04-27T01:27:11.690Z,6.43
2023-04-27T01:29:38.914Z,6.28
2023-04-27T01:32:06.597Z,6.18
2023-04-27T01:34:34.102Z,6.38
2023-04-27T01:37:01.371Z,5.93
2023-04-27T01:39:28.620Z,6.95
2023-04-27T01:41:58.374Z,6.43
2023-04-27T01:44:26.291Z,7.03
2023-04-27T01:46:54.478Z,7.50
2023-04-27T01:49:22.136Z,6.60
2023-04-27T01:51:49.386Z,6.32
2023-04-27T01:54:16.528Z,5.93
2023-04-27T01:56:44.003Z,5.40
2023-04-27T01:59:11.326Z,6.70
2023-04-27T02:01:38.400Z,6.22
2023-04-27T02:04:09.510Z,6.22
2023-04-27T02:06:36.658Z,5.80
2023-04-27T02:09:05.437Z,5.57
2023-04-27T02:11:32.663Z,5.60
2023-04-27T02:13:59.894Z,6.30
2023-04-27T02:16:36.110Z,5.70
2023-04-27T02:19:04.766Z,6.15
2023-04-27T02:21:31.781Z,6.13
2023-04-27T02:23:58.950Z,5.57
2023-04-27T02:26:29.629Z,5.28
2023-04-27T02:28:57.598Z,5.57
2023-04-27T02:31:25.585Z,5.78
2023-04-27T02:33:52.943Z,6.20
2023-04-27T02:36:20.571Z,6.10
2023-04-27T02:38:47.394Z,5.97
2023-04-27T02:41:14.438Z,5.40
2023-04-27T02:46:08.992Z,6.25
2023-04-27T02:48:36.005Z,5.63
2023-04-27T02:51:04.993Z,5.18
2023-04-27T02:53:32.012Z,5.63
2023-04-27T02:55:59.286Z,5.72
2023-04-27T02:58:26.908Z,5.60
2023-04-27T03:00:57.611Z,5.03
2023-04-27T03:03:25.250Z,6.07
2023-04-27T03:05:52.857Z,5.63
2023-04-27T03:08:20.564Z,5.68
2023-04-27T03:10:47.518Z,5.75
2023-04-27T03:13:15.637Z,6.35
2023-04-27T03:15:43.889Z,5.15
2023-04-27T03:18:11.616Z,5.80
2023-04-27T03:20:38.545Z,5.10
2023-04-27T03:23:06.821Z,5.57
2023-04-27T03:25:34.132Z,5.30
2023-04-27T03:28:01.240Z,5.78
2023-04-27T03:30:28.384Z,5.47
2023-04-27T03:32:56.729Z,5.45
2023-04-27T03:35:24.374Z,5.78
2023-04-27T03:37:51.239Z,5.80
2023-04-27T03:40:18.056Z,5.80
2023-04-27T03:45:12.514Z,5.45
2023-04-27T03:47:39.861Z,5.85
2023-04-27T03:50:07.220Z,5.40
2023-04-27T03:52:34.412Z,5.63
2023-04-27T03:55:01.707Z,4.90
2023-04-27T03:57:29.942Z,5.57
2023-04-27T03:59:57.640Z,6.40
2023-04-27T04:02:25.994Z,5.90
2023-04-27T04:04:53.105Z,5.40
2023-04-27T04:07:22.244Z,5.63
2023-04-27T04:09:49.824Z,5.85
2023-04-27T04:12:16.704Z,6.03
2023-04-27T04:14:44.248Z,5.72
2023-04-27T04:17:12.733Z,6.78
2023-04-27T04:19:41.447Z,6.15
2023-04-27T04:24:35.010Z,5.68
2023-04-27T04:29:30.204Z,5.85
2023-04-27T04:31:57.155Z,6.40
2023-04-27T04:34:24.819Z,5.97
2023-04-27T04:36:52.123Z,5.95
2023-04-27T04:39:23.930Z,6.10
2023-04-27T04:41:51.093Z,5.82
2023-04-27T04:44:19.909Z,5.68
2023-04-27T04:46:47.483Z,5.72
2023-04-27T04:49:15.092Z,5.18
2023-04-27T04:51:43.753Z,5.88
2023-04-27T04:54:12.462Z,5.20
2023-04-27T04:56:43.247Z,5.85
2023-04-27T04:59:14.093Z,5.18
2023-04-27T05:01:41.439Z,6.28
2023-04-27T05:04:08.807Z,5.50
2023-04-27T05:06:37.158Z,5.80
2023-04-27T05:09:06.648Z,5.45
2023-04-27T05:11:37.584Z,5.75
2023-04-27T05:14:04.369Z,5.47
2023-04-27T05:16:31.766Z,5.72
2023-04-27T05:18:58.894Z,4.88
2023-04-27T05:21:29.305Z,5.25
2023-04-27T05:23:56.319Z,5.15
2023-04-27T05:26:23.331Z,5.10
2023-04-27T05:28:51.263Z,5.30
2023-04-27T05:31:18.427Z,6.38
2023-04-27T05:33:45.787Z,6.18
2023-04-27T05:36:12.898Z,6.03
2023-04-27T05:38:40.560Z,5.85
2023-04-27T05:41:07.932Z,5.45
2023-04-27T05:43:35.568Z,5.38
2023-04-27T05:46:02.679Z,4.97
2023-04-27T05:48:29.614Z,5.53
2023-04-27T05:51:01.707Z,5.57
2023-04-27T05:53:29.856Z,5.30
2023-04-27T05:55:59.134Z,5.28
2023-04-27T05:58:28.965Z,5.28
2023-04-27T06:00:57.307Z,5.20
2023-04-27T06:03:24.770Z,5.00
2023-04-27T06:05:58.623Z,5.78
2023-04-27T06:08:27.031Z,5.93
2023-04-27T06:10:54.718Z,6.10
2023-04-27T06:13:21.931Z,5.70
2023-04-27T06:15:48.940Z,5.30
2023-04-27T06:18:16.597Z,6.70
2023-04-27T06:20:43.419Z,6.03
2023-04-27T06:23:11.308Z,6.68
2023-04-27T06:25:40.391Z,6.05
2023-04-27T06:28:07.232Z,5.85
2023-04-27T06:30:34.424Z,5.30
2023-04-27T06:33:01.541Z,6.00
2023-04-27T06:35:28.393Z,5.28
2023-04-27T06:37:58.936Z,5.15
2023-04-27T06:40:26.957Z,5.32
2023-04-27T06:42:54.165Z,4.47
2023-04-27T06:45:21.123Z,5.20
2023-04-27T06:47:47.873Z,4.50
2023-04-27T06:50:17.533Z,5.45
2023-04-27T06:52:46.045Z,4.63
2023-04-27T06:55:13.092Z,4.78
2023-04-27T06:57:40.049Z,5.05
2023-04-27T07:00:07.791Z,4.45
2023-04-27T07:02:35.906Z,4.88
2023-04-27T07:05:03.326Z,3.97
2023-04-27T07:07:30.315Z,4.78
2023-04-27T07:10:00.228Z,4.93
2023-04-27T07:12:28.146Z,4.93
2023-04-27T07:14:54.983Z,4.18
2023-04-27T07:17:21.829Z,4.43
2023-04-27T07:19:49.127Z,3.88
2023-04-27T07:22:16.184Z,4.32
2023-04-27T07:24:43.713Z,3.95
2023-04-27T07:27:11.160Z,4.18
2023-04-27T07:29:38.142Z,4.65
2023-04-27T07:32:07.217Z,4.25
2023-04-27T07:34:48.931Z,3.95
2023-04-27T07:37:19.841Z,3.60
2023-04-27T07:39:48.862Z,3.42
2023-04-27T07:42:16.104Z,3.42
2023-04-27T07:44:43.056Z,2.55
2023-04-27T07:47:10.791Z,4.10
2023-04-27T07:49:38.630Z,3.72
2023-04-27T07:52:05.812Z,3.85
2023-04-27T07:54:32.725Z,3.50
2023-04-27T07:56:59.841Z,3.70
2023-04-27T07:59:29.860Z,4.57
2023-04-27T08:02:07.153Z,3.60
2023-04-27T08:04:44.298Z,3.63
2023-04-27T08:07:12.092Z,3.95
2023-04-27T08:09:39.943Z,2.97
2023-04-27T08:12:07.030Z,3.78
2023-04-27T08:14:37.948Z,3.25
2023-04-27T08:17:05.155Z,3.15
2023-04-27T08:19:32.294Z,3.30
2023-04-27T08:21:59.486Z,3.00
2023-04-27T08:24:26.977Z,3.28
2023-04-27T08:26:53.896Z,3.30
2023-04-27T08:29:28.037Z,2.65
2023-04-27T08:31:58.939Z,3.30
2023-04-27T08:34:27.266Z,2.78
2023-04-27T08:36:54.974Z,2.40
2023-04-27T08:39:23.086Z,2.60
2023-04-27T08:41:50.687Z,3.13
2023-04-27T08:44:17.980Z,2.22
2023-04-27T08:46:44.814Z,2.42
2023-04-27T08:49:14.325Z,3.05
2023-04-27T08:51:43.129Z,2.83
2023-04-27T08:54:10.331Z,2.80
2023-04-27T08:56:37.337Z,3.00
2023-04-27T08:59:14.435Z,2.53
2023-04-27T09:01:47.127Z,2.10
2023-04-27T09:04:15.037Z,2.97
2023-04-27T09:06:42.195Z,3.55
2023-04-27T09:09:09.579Z,3.05
2023-04-27T09:11:40.061Z,3.22
2023-04-27T09:14:18.829Z,3.13
2023-04-27T09:16:56.240Z,2.70
2023-04-27T09:19:31.216Z,3.53
2023-04-27T09:22:11.356Z,3.20
2023-04-27T09:24:39.044Z,2.90
2023-04-27T09:27:07.313Z,2.70
2023-04-27T09:29:38.909Z,3.25
2023-04-27T09:32:17.205Z,3.45
2023-04-27T09:34:45.110Z,3.10
2023-04-27T09:37:12.880Z,3.45
2023-04-27T09:39:40.795Z,3.20
2023-04-27T09:42:08.775Z,3.90
2023-04-27T09:44:36.452Z,2.92
2023-04-27T09:47:03.255Z,3.08
2023-04-27T09:49:34.815Z,3.83
2023-04-27T09:52:01.831Z,3.17
2023-04-27T09:54:32.645Z,3.53
2023-04-27T09:57:18.143Z,3.85
2023-04-27T10:00:11.966Z,3.70
2023-04-27T10:02:53.643Z,3.80
2023-04-27T10:05:49.654Z,3.75
2023-04-27T10:08:17.439Z,3.85
2023-04-27T10:10:48.979Z,3.20
2023-04-27T10:13:26.677Z,3.30
2023-04-27T10:15:54.587Z,3.45
2023-04-27T10:18:31.510Z,4.00
2023-04-27T10:21:10.538Z,3.38
2023-04-27T10:23:50.769Z,3.30
2023-04-27T10:26:28.392Z,3.08
2023-04-27T10:29:09.282Z,3.20
2023-04-27T10:31:43.299Z,3.10
2023-04-27T10:34:15.979Z,3.60
2023-04-27T10:36:43.086Z,3.45
2023-04-27T10:39:27.653Z,2.70
2023-04-27T10:41:59.939Z,3.03
2023-04-27T10:44:29.979Z,3.03
2023-04-27T10:47:02.019Z,2.97
2023-04-27T10:49:30.398Z,2.67
2023-04-27T10:51:59.718Z,2.83
2023-04-27T10:54:30.446Z,3.10
2023-04-27T10:57:08.409Z,2.22
2023-04-27T10:59:47.493Z,3.00
2023-04-27T11:02:14.319Z,3.08
2023-04-27T11:04:44.214Z,2.80
2023-04-27T11:07:12.114Z,3.10
2023-04-27T11:09:43.619Z,2.30
2023-04-27T11:12:13.985Z,2.40
2023-04-27T11:14:43.832Z,2.85
2023-04-27T11:17:13.271Z,2.13
2023-04-27T11:19:47.936Z,2.60
2023-04-27T11:22:19.960Z,2.38
2023-04-27T11:24:52.080Z,2.70
2023-04-27T11:27:22.220Z,2.22
2023-04-27T11:29:49.056Z,2.55
2023-04-27T11:32:23.678Z,2.53
2023-04-27T11:34:53.658Z,2.67
2023-04-27T11:37:27.799Z,2.42
2023-04-27T11:39:55.594Z,2.53
2023-04-27T11:42:25.226Z,2.83
2023-04-27T11:45:00.262Z,2.80
2023-04-27T11:47:29.552Z,3.05
2023-04-27T11:49:58.302Z,3.03
2023-04-27T11:52:49.188Z,3.25
2023-04-27T11:55:16.725Z,3.03
2023-04-27T11:57:47.161Z,3.17
2023-04-27T12:00:15.657Z,3.45
2023-04-27T12:02:43.988Z,3.13
2023-04-27T12:05:13.676Z,3.33
2023-04-27T12:07:42.510Z,3.42
2023-04-27T12:10:10.445Z,3.17
2023-04-27T12:12:37.959Z,3.30
2023-04-27T12:15:06.896Z,2.75
2023-04-27T12:17:34.016Z,3.97
2023-04-27T12:20:01.469Z,3.30
2023-04-27T12:22:29.010Z,2.88
2023-04-27T12:24:56.555Z,2.60
2023-04-27T12:27:23.730Z,2.88
2023-04-27T12:29:53.937Z,3.03
2023-04-27T12:32:21.720Z,2.78
2023-04-27T12:34:49.348Z,3.00
2023-04-27T12:37:16.427Z,3.20
2023-04-27T12:39:43.368Z,2.58
2023-04-27T12:42:11.257Z,2.70
2023-04-27T12:44:38.415Z,2.50
2023-04-27T12:47:05.863Z,3.00
2023-04-27T12:49:33.276Z,2.70
2023-04-27T12:52:00.648Z,2.25
2023-04-27T12:54:27.516Z,3.30
2023-04-27T12:56:54.924Z,2.83
2023-04-27T12:59:21.710Z,2.70
2023-04-27T13:01:49.096Z,2.50
2023-04-27T13:04:21.842Z,2.83
2023-04-27T13:06:51.313Z,2.83
2023-04-27T13:09:18.921Z,3.00
2023-04-27T13:11:46.220Z,2.63
2023-04-27T13:14:13.739Z,2.80
2023-04-27T13:16:42.584Z,2.83
2023-04-27T13:19:09.967Z,3.10
2023-04-27T13:21:37.209Z,2.50
2023-04-27T13:24:04.295Z,2.63
2023-04-27T13:26:31.372Z,2.55
2023-04-27T13:28:58.462Z,2.75
2023-04-27T13:31:28.246Z,2.63
2023-04-27T13:33:56.247Z,2.58
2023-04-27T13:36:23.288Z,3.00
2023-04-27T13:38:51.040Z,3.28
2023-04-27T13:41:18.818Z,3.53
2023-04-27T13:43:46.878Z,2.58
2023-04-27T13:46:16.868Z,3.03
2023-04-27T13:48:44.009Z,2.90
2023-04-27T13:51:11.714Z,3.25
2023-04-27T13:53:38.815Z,3.50
2023-04-27T13:56:06.375Z,3.20
2023-04-27T13:58:33.760Z,3.25
2023-04-27T14:01:01.800Z,3.20
2023-04-27T14:03:29.973Z,3.15
2023-04-27T14:06:01.042Z,4.10
2023-04-27T14:08:28.282Z,3.20
2023-04-27T14:10:55.600Z,3.60
2023-04-27T14:13:26.227Z,3.13
2023-04-27T14:15:53.511Z,3.30
2023-04-27T14:18:27.492Z,2.90
2023-04-27T14:20:59.128Z,2.95
2023-04-27T14:23:26.243Z,3.00
2023-04-27T14:25:53.681Z,3.30
2023-04-27T14:28:20.796Z,2.80
2023-04-27T14:30:47.704Z,3.00
2023-04-27T14:33:14.784Z,2.85
2023-04-27T14:35:41.739Z,3.00
2023-04-27T14:38:12.247Z,2.83
2023-04-27T14:40:39.077Z,3.08
2023-04-27T14:43:06.047Z,2.92
2023-04-27T14:45:43.671Z,3.08
2023-04-27T14:48:17.619Z,3.20
2023-04-27T14:50:44.752Z,3.00
2023-04-27T14:53:11.914Z,2.90
2023-04-27T14:55:38.697Z,3.03
2023-04-27T14:58:05.660Z,2.90
2023-04-27T15:00:32.608Z,2.88
2023-04-27T15:02:59.620Z,3.22
2023-04-27T15:05:26.567Z,3.25
2023-04-27T15:07:53.643Z,3.38
2023-04-27T15:10:20.853Z,3.15
2023-04-27T15:12:47.768Z,3.00
2023-04-27T15:15:14.844Z,3.40
2023-04-27T15:17:42.015Z,3.33
2023-04-27T15:20:09.130Z,2.95
2023-04-27T15:22:36.169Z,3.55
2023-04-27T15:25:03.645Z,3.65
2023-04-27T15:27:30.788Z,3.33
2023-04-27T15:29:58.856Z,2.95
2023-04-27T15:32:30.330Z,3.45
2023-04-27T15:34:58.237Z,3.45
2023-04-27T15:37:29.416Z,3.00
2023-04-27T15:39:56.510Z,4.15
2023-04-27T15:42:24.328Z,3.22
2023-04-27T15:44:52.089Z,3.67
2023-04-27T15:47:19.086Z,3.20
2023-04-27T15:49:56.101Z,3.33
2023-04-27T15:52:24.412Z,3.30
2023-04-27T15:54:52.046Z,3.17
2023-04-27T15:57:19.117Z,3.50
2023-04-27T15:59:46.474Z,3.05
2023-04-27T16:02:13.935Z,3.85
2023-04-27T16:04:40.692Z,2.95
2023-04-27T16:07:08.418Z,3.10
2023-04-27T16:09:35.730Z,3.20
2023-04-27T16:12:04.000Z,3.13
2023-04-27T16:14:31.285Z,3.40
2023-04-27T16:17:02.283Z,3.55
2023-04-27T16:19:35.647Z,3.28
2023-04-27T16:22:04.299Z,3.13
2023-04-27T16:24:33.117Z,3.20
2023-04-27T16:26:59.984Z,3.00
2023-04-27T16:29:27.433Z,3.33
2023-04-27T16:31:54.423Z,3.35
2023-04-27T16:34:21.459Z,2.85
2023-04-27T16:36:51.809Z,3.15
2023-04-27T16:39:20.348Z,3.03
2023-04-27T16:41:48.544Z,2.75
2023-04-27T16:44:15.888Z,2.85
2023-04-27T16:46:43.405Z,2.70
2023-04-27T16:49:12.470Z,2.67
2023-04-27T16:51:39.892Z,2.97
2023-04-27T16:54:07.248Z,2.75
2023-04-27T16:56:36.438Z,2.70
2023-04-27T16:59:05.241Z,3.30
2023-04-27T17:01:33.232Z,2.90
2023-04-27T17:04:03.852Z,2.97
2023-04-27T17:06:33.437Z,3.33
2023-04-27T17:09:01.480Z,3.08
2023-04-27T17:11:33.909Z,2.70
2023-04-27T17:16:28.518Z,3.20
2023-04-27T17:18:56.895Z,2.97
2023-04-27T17:21:27.014Z,3.53
2023-04-27T17:23:54.031Z,3.70
2023-04-27T17:26:23.193Z,3.42
2023-04-27T17:28:51.211Z,3.42
2023-04-27T17:31:18.387Z,4.05
2023-04-27T17:33:46.052Z,4.05
2023-04-27T17:36:15.908Z,11.98
2023-04-27T17:38:43.010Z,4.95
2023-04-27T17:41:09.901Z,4.65
2023-04-27T17:43:37.839Z,3.30
2023-04-27T17:46:11.761Z,4.75
2023-04-27T17:48:39.163Z,3.63
2023-04-27T17:51:06.375Z,3.60
2023-04-27T17:53:42.767Z,3.58
2023-04-27T17:56:10.548Z,3.80
2023-04-27T17:58:37.825Z,3.72
2023-04-27T18:01:09.088Z,4.22
2023-04-27T18:04:27.088Z,5.32
2023-04-27T18:06:54.277Z,7.78
2023-04-27T18:09:21.820Z,6.20
2023-04-27T18:11:48.657Z,5.38
2023-04-27T18:14:15.746Z,4.70
2023-04-27T18:16:42.927Z,4.07
2023-04-27T18:19:10.831Z,4.10
2023-04-27T18:21:37.933Z,5.60
2023-04-27T18:24:06.168Z,4.57
2023-04-27T18:26:36.886Z,5.45
2023-04-27T18:29:05.327Z,5.68
2023-04-27T18:31:32.410Z,4.70
2023-04-27T18:33:59.799Z,4.45
2023-04-27T18:36:27.902Z,5.43
2023-04-27T18:38:55.439Z,5.53
2023-04-27T18:41:22.568Z,5.97
2023-04-27T18:43:49.484Z,5.55
2023-04-27T18:46:16.616Z,5.13
2023-04-27T18:48:43.379Z,4.25
2023-04-27T18:51:10.434Z,4.78
2023-04-27T18:53:37.460Z,5.13
2023-04-27T18:56:04.625Z,4.18
2023-04-27T18:58:31.748Z,4.13
2023-04-27T19:01:04.412Z,3.90
2023-04-27T19:03:32.574Z,3.78
2023-04-27T19:06:02.356Z,3.63
2023-04-27T19:08:33.185Z,4.25
2023-04-27T19:11:00.949Z,4.13
2023-04-27T19:13:35.727Z,3.95
2023-04-27T19:16:07.976Z,4.00
2023-04-27T19:18:37.896Z,4.40
2023-04-27T19:21:05.148Z,3.97
2023-04-27T19:23:38.622Z,5.13
2023-04-27T19:26:13.088Z,4.82
2023-04-27T19:28:44.793Z,4.55
2023-04-27T19:31:17.191Z,5.38
2023-04-27T19:36:23.395Z,5.35
2023-04-27T19:38:53.361Z,6.18
2023-04-27T19:41:24.589Z,7.10
2023-04-27T19:43:53.689Z,6.18
2023-04-27T19:46:23.625Z,6.40
2023-04-27T19:49:04.415Z,6.82
2023-04-27T19:51:32.812Z,6.75
2023-04-27T19:54:05.167Z,6.38
2023-04-27T19:56:52.644Z,6.55
2023-04-27T19:59:23.083Z,6.70
2023-04-27T20:01:54.491Z,7.18
2023-04-27T20:04:32.135Z,8.02
2023-04-27T20:07:07.682Z,7.90
2023-04-27T20:09:41.100Z,8.85
2023-04-27T20:12:13.052Z,9.15
2023-04-27T20:14:49.627Z,8.07
2023-04-27T20:17:20.531Z,8.40
2023-04-27T20:19:48.462Z,8.43
2023-04-27T20:22:27.273Z,9.23
2023-04-27T20:27:32.807Z,8.05
2023-04-27T20:30:04.364Z,9.07
2023-04-27T20:32:32.994Z,8.73
2023-04-27T20:35:02.030Z,8.82
2023-04-27T20:37:29.309Z,7.93
2023-04-27T20:39:56.409Z,8.02
2023-04-27T20:42:24.913Z,8.85
2023-04-27T20:44:55.037Z,8.15
2023-04-27T20:47:22.875Z,8.32
2023-04-27T20:49:49.930Z,8.23
2023-04-27T20:52:16.999Z,8.23
2023-04-27T20:54:43.887Z,7.53
2023-04-27T20:57:14.054Z,7.40
2023-04-27T20:59:41.672Z,7.18
2023-04-27T21:02:08.787Z,7.53
2023-04-27T21:04:36.184Z,7.57
2023-04-27T21:07:03.370Z,8.23
2023-04-27T21:09:31.630Z,7.47
2023-04-27T21:11:58.457Z,7.53
2023-04-27T21:14:25.268Z,6.82
2023-04-27T21:16:52.625Z,6.50
2023-04-27T21:19:19.549Z,6.10
2023-04-27T21:21:46.455Z,6.25
2023-04-27T21:24:14.008Z,5.97
2023-04-27T21:26:42.381Z,6.18
2023-04-27T21:29:09.480Z,5.90
2023-04-27T21:31:36.955Z,5.90
2023-04-27T21:34:04.215Z,5.45
2023-04-27T21:36:32.954Z,5.90
2023-04-27T21:39:00.408Z,6.18
2023-04-27T21:41:27.661Z,6.13
2023-04-27T21:43:54.605Z,6.13
2023-04-27T21:46:23.346Z,5.80
2023-04-27T21:48:50.836Z,6.10
2023-04-27T21:51:17.819Z,6.90
2023-04-27T21:53:44.907Z,6.90
2023-04-27T21:56:12.340Z,6.10
2023-04-27T21:58:39.469Z,6.25
2023-04-27T22:01:06.691Z,6.90
2023-04-27T22:03:34.085Z,6.32
2023-04-27T22:06:02.437Z,6.18
2023-04-27T22:08:29.592Z,6.82
2023-04-27T22:10:57.270Z,6.47
2023-04-27T22:13:24.775Z,6.22
2023-04-27T22:15:51.742Z,6.03
2023-04-27T22:18:18.772Z,6.45
2023-04-27T22:20:47.442Z,5.53
2023-04-27T22:23:14.267Z,5.75
2023-04-27T22:25:43.220Z,6.00
2023-04-27T22:28:11.089Z,6.85
2023-04-27T22:30:40.108Z,6.80
2023-04-27T22:33:07.873Z,6.40
2023-04-27T22:35:36.593Z,6.20
2023-04-27T22:38:03.456Z,5.95
2023-04-27T22:40:30.473Z,6.30
2023-04-27T22:42:57.680Z,5.72
2023-04-27T22:45:24.731Z,5.38
2023-04-27T22:47:52.076Z,6.13
2023-04-27T22:50:19.994Z,6.50
2023-04-27T22:52:46.974Z,5.75
2023-04-27T22:55:14.057Z,6.10
2023-04-27T22:57:42.001Z,6.45
2023-04-27T23:00:11.853Z,6.68
2023-04-27T23:02:40.390Z,6.78
2023-04-27T23:05:08.716Z,6.05
2023-04-27T23:07:36.235Z,7.00
2023-04-27T23:10:05.023Z,6.25
2023-04-27T23:12:32.594Z,6.22
2023-04-27T23:14:59.612Z,7.10
2023-04-27T23:17:30.899Z,8.10
2023-04-27T23:19:59.966Z,7.13
2023-04-27T23:22:28.669Z,7.05
2023-04-27T23:24:55.573Z,7.53
2023-04-27T23:27:23.682Z,6.97
2023-04-27T23:29:51.796Z,7.57
2023-04-27T23:32:19.302Z,7.30
2023-04-27T23:34:46.380Z,7.55
2023-04-27T23:37:13.590Z,7.68
2023-04-27T23:39:40.484Z,8.25
2023-04-27T23:42:07.531Z,7.07
2023-04-27T23:44:34.466Z,8.07
2023-04-27T23:47:01.588Z,7.47
2023-04-27T23:49:29.113Z,8.02
2023-04-27T23:51:55.985Z,7.50
2023-04-27T23:54:23.359Z,7.55
2023-04-27T23:56:51.654Z,8.10
2023-04-27T23:59:18.784Z,7.68
